Who's Online

We have 9 guests online

Aviation WX

[source: ADDS]
METAR
KIAD 011952Z 26005KT 10SM FEW070 SCT095 30/16 A2985 RMK AO2 SLP107 T03000156 =
TAF
KIAD 011722Z 0118/0224 27007KT P6SM FEW050 SCT150 FM020600 33004KT P6SM FEW200 FM021800 25004KT P6SM FEW070 FEW250 =
SR / SS: 23:55 / 14:01 UTC (Washington-Dulles 2015-08-01)

JoomlaWatch Agent

Home Products and Services

This section describes Multilink Systems products and services

 

 

Under construction Please Standby